Time;durP1;ratioP1;P1;durP2;ratioP2;P2;SDS_P1;SDS_P2;PMS_P1;PMS_P2;Temp;Humidity;BMP_temperature;BMP_pressure;BME280_temperature;BME280_humidity;BME280_pressure;Samples;Min_cycle;Max_cycle;Signal;HPM_P1;HPM_P2
2021/05/31 00:00:07;;;;;;;9.02;8.10;;;;;;;20.54;45.23;94463.41;5051945;27;99304;-61
2021/05/31 00:02:33;;;;;;;62.40;55.97;;;;;;;20.54;45.24;94460.66;5051510;27;99561;-61
2021/05/31 00:04:58;;;;;;;58.95;52.97;;;;;;;20.47;45.34;94457.97;5050990;27;96913;-63
2021/05/31 00:07:24;;;;;;;91.40;82.43;;;;;;;20.47;45.36;94458.78;5051349;27;97029;-61
2021/05/31 00:09:54;;;;;;;42.30;38.00;;;;;;;20.49;45.52;94444.63;5034402;27;99794;-61
2021/05/31 00:12:19;;;;;;;39.53;35.42;;;;;;;20.53;45.90;94435.22;5030920;28;99336;-59
2021/05/31 00:14:45;;;;;;;33.10;29.38;;;;;;;20.54;46.20;94434.03;5031514;28;97160;-61
2021/05/31 00:17:10;;;;;;;32.53;29.15;;;;;;;20.60;46.36;94434.38;5031103;28;97098;-65
2021/05/31 00:19:36;;;;;;;28.40;25.50;;;;;;;20.65;46.10;94431.19;5030883;28;99381;-65
2021/05/31 00:22:02;;;;;;;25.77;23.13;;;;;;;20.67;46.06;94434.31;5030531;28;99591;-64
2021/05/31 00:24:27;;;;;;;23.55;21.15;;;;;;;20.71;46.24;94440.56;5031077;28;96947;-63
2021/05/31 00:26:53;;;;;;;21.42;19.23;;;;;;;20.76;46.15;94446.78;5031271;28;96936;-62
2021/05/31 00:29:21;;;;;;;13.75;12.32;;;;;;;20.60;46.12;94445.34;5030368;28;99485;-63
2021/05/31 00:31:46;;;;;;;6.80;6.20;;;;;;;20.28;45.86;94443.63;5030234;28;99881;-63
2021/05/31 00:34:11;;;;;;;9.50;8.55;;;;;;;20.24;46.38;94445.59;5031816;28;96631;-61
2021/05/31 00:36:37;;;;;;;8.13;7.20;;;;;;;20.22;46.23;94448.75;5022311;28;96904;-62
2021/05/31 00:39:03;;;;;;;6.80;6.20;;;;;;;20.17;46.46;94434.69;5017914;28;99492;-62
2021/05/31 00:41:28;;;;;;;7.05;5.78;;;;;;;20.18;46.41;94437.00;5017533;28;99269;-63
2021/05/31 00:43:54;;;;;;;6.15;5.65;;;;;;;20.17;46.54;94442.91;5018341;28;96604;-63
2021/05/31 00:46:19;;;;;;;5.65;5.03;;;;;;;20.16;46.42;94435.88;5018205;28;97015;-62
2021/05/31 00:48:45;;;;;;;6.00;5.50;;;;;;;20.08;46.80;94433.16;5017244;28;99290;-63
2021/05/31 00:51:12;;;;;;;5.20;4.60;;;;;;;20.06;46.69;94435.53;5017391;28;99920;-64
2021/05/31 00:53:38;;;;;;;5.22;4.72;;;;;;;20.04;46.69;94426.91;5018379;28;96973;-61
2021/05/31 00:56:03;;;;;;;4.82;4.38;;;;;;;20.05;46.83;94431.22;5017862;28;97051;-61
2021/05/31 00:58:29;;;;;;;5.00;4.43;;;;;;;20.04;46.50;94426.13;5017577;28;99628;-62
2021/05/31 01:00:56;;;;;;;4.85;4.45;;;;;;;20.01;46.58;94430.47;5017500;28;99253;-62
2021/05/31 01:03:22;;;;;;;5.18;4.40;;;;;;;20.03;46.67;94430.03;5017755;28;96834;-62
2021/05/31 01:05:48;;;;;;;5.10;4.30;;;;;;;20.01;46.53;94422.25;5018082;28;96971;-60
2021/05/31 01:08:18;;;;;;;4.95;4.55;;;;;;;19.98;46.49;94414.81;5017198;28;99679;-60
2021/05/31 01:11:01;;;;;;;5.82;4.80;;;;;;;19.95;46.79;94412.88;5017174;28;99137;-62
2021/05/31 01:13:51;;;;;;;5.22;4.22;;;;;;;19.87;46.51;94416.81;5017680;28;96790;-61
2021/05/31 01:16:19;;;;;;;4.25;3.85;;;;;;;19.77;46.80;94413.72;5000478;28;96971;-60
2021/05/31 01:18:46;;;;;;;5.45;4.00;;;;;;;19.72;47.03;94414.16;5017083;28;99642;-60
2021/05/31 01:21:35;;;;;;;5.85;3.70;;;;;;;19.68;47.27;94407.91;5016744;28;99280;-61
2021/05/31 01:24:27;;;;;;;4.25;3.95;;;;;;;19.66;47.23;94407.53;5017097;28;96758;-60
2021/05/31 01:27:16;;;;;;;;;;;;;;;19.64;46.91;94404.41;4962520;28;97103;-59
2021/05/31 01:29:43;;;;;;;4.40;3.92;;;;;;;19.62;47.13;94406.75;4999178;28;99109;-59
2021/05/31 01:32:13;;;;;;;4.70;4.10;;;;;;;19.61;47.11;94405.19;4982271;28;99675;-60
2021/05/31 01:34:39;;;;;;;4.35;3.95;;;;;;;19.64;47.04;94402.44;5000120;28;96978;-59
2021/05/31 01:37:10;;;;;;;4.55;4.15;;;;;;;19.62;46.95;94402.06;4982752;28;97002;-61
2021/05/31 01:39:37;;;;;;;5.20;4.70;;;;;;;19.73;46.92;94402.00;4982940;28;99059;-63
2021/05/31 01:42:03;;;;;;;7.30;5.72;;;;;;;19.61;47.27;94402.47;5016669;28;98567;-63
2021/05/31 01:44:28;;;;;;;5.60;5.05;;;;;;;19.61;47.27;94397.75;4999093;28;96821;-62
2021/05/31 01:46:53;;;;;;;5.93;4.60;;;;;;;19.60;47.11;94392.69;4982441;28;98270;-63
2021/05/31 01:49:19;;;;;;;6.00;4.57;;;;;;;19.62;46.95;94401.28;5015653;28;99956;-64
2021/05/31 01:51:45;;;;;;;4.85;4.35;;;;;;;19.57;47.04;94393.47;4998531;28;99246;-63
2021/05/31 01:54:11;;;;;;;4.43;4.10;;;;;;;19.64;46.77;94386.00;5016949;28;96719;-61
2021/05/31 01:56:37;;;;;;;4.93;4.10;;;;;;;19.75;46.51;94388.66;4999460;28;97008;-60
2021/05/31 01:59:03;;;;;;;5.18;4.05;;;;;;;19.81;46.31;94387.06;4998761;28;99253;-71
2021/05/31 02:01:28;;;;;;;4.30;3.90;;;;;;;19.89;46.56;94376.09;4981541;28;99562;-69
2021/05/31 02:03:54;;;;;;;4.10;3.80;;;;;;;19.97;46.18;94372.13;4998727;28;97586;-67
2021/05/31 02:06:19;;;;;;;7.07;3.90;;;;;;;19.99;47.50;94372.50;5017078;28;96895;-64
2021/05/31 02:08:44;;;;;;;4.32;3.95;;;;;;;20.07;46.33;94371.28;5016255;28;99586;-67
2021/05/31 02:11:15;;;;;;;4.40;4.07;;;;;;;20.06;46.39;94374.41;5016278;28;99286;-69
2021/05/31 02:13:41;;;;;;;17.30;5.15;;;;;;;20.08;46.07;94370.09;4981721;28;97056;-71
2021/05/31 02:16:29;;;;;;;4.72;4.30;;;;;;;19.91;46.18;94373.75;4981991;28;96981;-66
2021/05/31 02:18:55;;;;;;;6.03;5.43;;;;;;;19.70;46.94;94369.94;5000499;28;98001;-62
2021/05/31 02:21:20;;;;;;;5.20;4.60;;;;;;;19.57;46.48;94360.59;5015839;28;99581;-67
2021/05/31 02:23:46;;;;;;;5.22;4.80;;;;;;;19.35;46.44;94372.44;5015785;28;96942;-65
2021/05/31 02:26:17;;;;;;;4.60;4.28;;;;;;;18.92;46.99;94362.38;4982118;28;96789;-66
2021/05/31 02:28:44;;;;;;;5.65;5.10;;;;;;;19.15;46.82;94363.91;5015503;28;97508;-65
2021/05/31 02:31:09;;;;;;;34.28;6.93;;;;;;;19.07;48.05;94362.38;4981154;28;99239;-68
2021/05/31 02:33:35;;;;;;;11.18;5.43;;;;;;;19.22;49.09;94363.09;4998531;28;96698;-65
2021/05/31 02:36:01;;;;;;;6.00;4.65;;;;;;;19.10;47.08;94356.13;5016159;28;96893;-61
2021/05/31 02:38:27;;;;;;;6.35;4.80;;;;;;;19.01;47.08;94363.97;4998246;28;99636;-60
2021/05/31 02:40:52;;;;;;;5.10;4.60;;;;;;;18.92;47.01;94361.59;5015715;28;99784;-60
2021/05/31 02:43:18;;;;;;;5.43;4.93;;;;;;;18.90;47.14;94359.25;5015583;28;96798;-61
2021/05/31 02:45:43;;;;;;;5.32;4.82;;;;;;;18.93;47.25;94357.69;5015819;28;97127;-63
2021/05/31 02:48:09;;;;;;;5.30;4.75;;;;;;;18.79;47.70;94364.78;5015753;28;99580;-62
2021/05/31 02:50:34;;;;;;;5.65;5.03;;;;;;;18.81;47.79;94361.63;5015308;28;99082;-60
2021/05/31 02:53:00;;;;;;;5.97;4.80;;;;;;;18.98;47.85;94359.28;5016168;28;96808;-61
2021/05/31 02:55:27;;;;;;;8.30;5.32;;;;;;;19.04;48.59;94357.69;5015355;28;97130;-63
2021/05/31 02:57:52;;;;;;;5.18;4.68;;;;;;;18.90;47.54;94359.25;5015348;28;99249;-61
2021/05/31 03:00:20;;;;;;;7.03;5.03;;;;;;;18.83;47.33;94353.81;5014836;28;100072;-60
2021/05/31 03:02:46;;;;;;;10.57;7.20;;;;;;;18.84;48.02;94360.06;5016002;28;96835;-60
2021/05/31 03:05:13;;;;;;;13.07;7.00;;;;;;;18.83;47.66;94364.75;5015606;28;97239;-60
2021/05/31 03:07:39;;;;;;;32.88;21.55;;;;;;;18.84;47.86;94363.56;5015363;28;100662;-60
2021/05/31 03:10:05;;;;;;;8.40;6.43;;;;;;;18.73;47.72;94371.03;5014353;28;99430;-60
2021/05/31 03:12:31;;;;;;;11.88;10.05;;;;;;;18.68;48.09;94358.53;5015601;28;96706;-60
2021/05/31 03:14:56;;;;;;;7.90;5.47;;;;;;;18.67;47.93;94356.97;5014826;28;96864;-59
2021/05/31 03:17:22;;;;;;;5.75;5.20;;;;;;;18.48;48.01;94361.69;5015118;28;99525;-60
2021/05/31 03:19:47;;;;;;;5.93;5.25;;;;;;;18.41;48.59;94355.44;5015035;28;99275;-59
2021/05/31 03:22:13;;;;;;;6.13;5.40;;;;;;;18.50;47.99;94353.09;5015538;28;96652;-59
2021/05/31 03:24:38;;;;;;;7.68;5.57;;;;;;;18.51;47.89;94349.19;5014968;28;97014;-60
2021/05/31 03:27:04;;;;;;;6.25;5.65;;;;;;;18.51;48.06;94354.66;5014985;28;99580;-59
2021/05/31 03:29:29;;;;;;;6.50;5.38;;;;;;;18.59;47.61;94345.25;5015082;28;97874;-59
2021/05/31 03:31:55;;;;;;;6.78;5.50;;;;;;;18.53;47.95;94346.84;5014979;28;98000;-60
2021/05/31 03:34:21;;;;;;;6.22;4.85;;;;;;;18.60;48.60;94340.56;5014872;28;96962;-59
2021/05/31 03:36:46;;;;;;;6.75;5.80;;;;;;;18.79;48.82;94331.16;5014097;28;99397;-59
2021/05/31 03:39:12;;;;;;;6.32;5.00;;;;;;;18.96;49.15;94329.56;5013716;28;99806;-60
2021/05/31 03:41:37;;;;;;;6.97;5.10;;;;;;;19.09;49.68;94327.19;5013892;28;96743;-60
2021/05/31 03:44:03;;;;;;;9.48;6.18;;;;;;;19.26;49.78;94331.00;5014728;28;96851;-55
2021/05/31 03:46:28;;;;;;;10.10;7.15;;;;;;;19.40;49.46;94341.13;5013447;28;100008;-56
2021/05/31 03:48:53;;;;;;;12.05;9.05;;;;;;;19.51;49.32;94336.38;5013933;28;99349;-54
2021/05/31 03:51:19;;;;;;;13.32;10.55;;;;;;;19.61;49.33;94339.44;5014193;28;96764;-54
2021/05/31 03:53:45;;;;;;;13.32;10.50;;;;;;;19.73;49.37;94330.75;5013636;28;96974;-56
2021/05/31 03:56:10;;;;;;;11.93;10.63;;;;;;;19.81;49.31;94326.78;5013607;28;99005;-54
2021/05/31 03:58:36;;;;;;;14.30;11.63;;;;;;;19.88;49.27;94341.63;5013207;28;97573;-54
2021/05/31 04:01:02;;;;;;;27.08;17.38;;;;;;;19.98;49.23;94340.81;5013370;28;97084;-56
2021/05/31 04:03:28;;;;;;;19.08;14.15;;;;;;;20.03;48.68;94340.38;5011659;28;97078;-56
2021/05/31 04:13:56;;;;;;;12.02;10.05;;;;;;;20.36;47.82;94360.09;5014269;28;96719;-55
2021/05/31 04:16:21;;;;;;;12.68;10.27;;;;;;;20.40;47.72;94360.06;5015700;28;100654;-55
2021/05/31 04:18:46;;;;;;;10.60;8.85;;;;;;;20.46;47.64;94357.66;5016012;28;99546;-55
2021/05/31 04:21:12;;;;;;;11.50;9.02;;;;;;;20.51;47.38;94354.47;5017701;28;96694;-55
2021/05/31 04:23:37;;;;;;;9.93;8.43;;;;;;;20.53;47.58;94346.63;5017755;28;97015;-55
2021/05/31 04:26:03;;;;;;;9.10;8.10;;;;;;;20.56;47.65;94346.59;5016774;28;100653;-55
2021/05/31 04:28:28;;;;;;;8.35;7.45;;;;;;;20.59;47.21;94353.22;5017096;28;99447;-54
2021/05/31 04:30:54;;;;;;;7.35;6.38;;;;;;;20.59;47.47;94350.50;5017070;28;97218;-55
2021/05/31 04:33:19;;;;;;;7.18;6.22;;;;;;;20.66;47.53;94344.94;5017482;28;96938;-54
2021/05/31 04:35:44;;;;;;;6.57;5.88;;;;;;;20.70;47.34;94351.16;5017121;28;97849;-55
2021/05/31 04:38:10;;;;;;;5.75;5.25;;;;;;;20.72;47.14;94353.50;5016884;28;99222;-55
2021/05/31 04:40:35;;;;;;;7.03;5.68;;;;;;;20.76;47.42;94348.75;5017205;28;96781;-56
2021/05/31 04:43:01;;;;;;;5.93;5.30;;;;;;;20.77;47.28;94350.34;5017514;28;96935;-56
2021/05/31 04:45:27;;;;;;;11.77;8.35;;;;;;;20.80;47.42;94351.50;5016070;28;99106;-55
2021/05/31 04:47:53;;;;;;;8.48;7.57;;;;;;;20.81;47.35;94345.59;5017248;28;99185;-55
2021/05/31 04:50:18;;;;;;;7.50;5.80;;;;;;;20.83;47.43;94348.72;5017062;28;96646;-55
2021/05/31 04:52:43;;;;;;;7.35;5.35;;;;;;;20.85;47.15;94345.56;5017100;28;96943;-54
2021/05/31 04:55:15;;;;;;;5.32;4.82;;;;;;;20.86;47.31;94350.66;5016187;28;98987;-53
2021/05/31 04:57:40;;;;;;;5.27;4.77;;;;;;;20.87;47.10;94349.44;5016902;28;99174;-57
2021/05/31 05:00:06;;;;;;;5.53;4.38;;;;;;;20.89;47.31;94340.81;5017058;28;96708;-55
2021/05/31 05:02:32;;;;;;;4.28;3.88;;;;;;;20.90;47.20;94341.59;5017012;28;96970;-56
2021/05/31 05:04:57;;;;;;;4.45;3.78;;;;;;;20.92;47.06;94345.47;5016212;28;99831;-55
2021/05/31 05:07:23;;;;;;;3.70;3.40;;;;;;;20.95;46.93;94347.41;5016279;28;99003;-53
2021/05/31 05:09:49;;;;;;;3.63;3.33;;;;;;;20.96;47.13;94339.97;5016854;28;96925;-53
2021/05/31 05:12:15;;;;;;;3.55;3.25;;;;;;;20.96;47.24;94340.72;5017242;28;97024;-56
2021/05/31 05:14:40;;;;;;;3.35;3.00;;;;;;;20.97;47.22;94339.53;5016483;28;99076;-56
2021/05/31 05:17:05;;;;;;;3.45;3.15;;;;;;;20.97;47.11;94339.53;5016550;28;98959;-56
2021/05/31 05:19:31;;;;;;;3.10;2.75;;;;;;;20.98;47.10;94343.84;5016273;28;96669;-55
2021/05/31 05:21:56;;;;;;;2.92;2.72;;;;;;;20.99;47.08;94348.16;5016713;28;96876;-55
2021/05/31 05:24:22;;;;;;;2.90;2.70;;;;;;;21.03;47.16;94346.13;5015598;28;99366;-56
2021/05/31 05:26:47;;;;;;;2.28;2.10;;;;;;;21.03;47.25;94346.13;5016024;28;99646;-54
2021/05/31 05:29:20;;;;;;;2.35;2.15;;;;;;;21.07;47.24;94353.56;5016513;28;97114;-55
2021/05/31 05:31:47;;;;;;;2.47;2.28;;;;;;;21.09;47.06;94353.94;5016837;28;96652;-54
2021/05/31 05:34:12;;;;;;;2.00;1.90;;;;;;;21.10;47.14;94355.50;5016018;28;98704;-56
2021/05/31 05:39:44;;;;;;;1.80;1.70;;;;;;;21.10;47.25;94356.28;5016693;28;96634;-56
2021/05/31 05:49:47;;;;;;;1.70;1.60;;;;;;;21.15;47.24;94352.28;5015972;28;96772;-55
2021/05/31 05:52:12;;;;;;;1.60;1.50;;;;;;;21.15;47.29;94352.28;5016242;28;97297;-55
2021/05/31 05:54:38;;;;;;;1.92;1.30;;;;;;;21.18;47.20;94356.97;5015892;28;99421;-56
2021/05/31 05:57:04;;;;;;;1.20;1.20;;;;;;;21.17;47.17;94355.41;5015615;28;98974;-53
2021/05/31 05:59:29;;;;;;;1.60;1.50;;;;;;;21.19;47.26;94358.53;5016313;28;97231;-54
2021/05/31 06:01:54;;;;;;;2.30;1.70;;;;;;;21.23;47.33;94356.50;5016464;28;97114;-57
2021/05/31 06:04:20;;;;;;;1.63;1.52;;;;;;;21.22;47.15;94357.72;5015572;28;99042;-57
2021/05/31 06:06:45;;;;;;;2.00;1.90;;;;;;;21.22;47.22;94356.91;5015655;28;99202;-62
2021/05/31 06:09:15;;;;;;;3.28;2.25;;;;;;;21.25;47.80;94362.38;5014172;28;96744;-59
2021/05/31 06:11:41;;;;;;;2.88;2.30;;;;;;;21.22;47.07;94354.97;5015687;28;96950;-58
2021/05/31 06:14:09;;;;;;;3.92;2.15;;;;;;;21.26;47.87;94352.94;5015367;28;99536;-59
2021/05/31 06:16:34;;;;;;;3.00;2.17;;;;;;;21.27;48.12;94343.53;5015148;28;99111;-56
2021/05/31 06:19:00;;;;;;;3.63;3.00;;;;;;;21.33;47.87;94341.88;5015669;28;96805;-61
2021/05/31 06:21:25;;;;;;;2.45;2.20;;;;;;;21.31;48.00;94327.78;5015458;28;96968;-59
2021/05/31 06:23:50;;;;;;;2.28;2.10;;;;;;;21.31;47.87;94327.78;5013394;28;99223;-61
2021/05/31 06:26:16;;;;;;;5.15;4.07;;;;;;;21.30;47.94;94326.22;5015027;28;99489;-63
2021/05/31 06:28:42;;;;;;;9.85;8.82;;;;;;;21.33;48.01;94324.59;5015633;28;96657;-60
2021/05/31 06:31:07;;;;;;;13.98;10.85;;;;;;;21.31;47.95;94333.28;5015334;28;96938;-61
2021/05/31 06:33:33;;;;;;;17.27;13.05;;;;;;;21.37;48.58;94341.06;5013732;28;99418;-60
2021/05/31 06:35:59;;;;;;;19.77;11.52;;;;;;;21.31;48.16;94322.28;5013345;28;100910;-60
2021/05/31 06:38:25;;;;;;;13.57;10.48;;;;;;;21.42;47.99;94337.84;5013040;28;97023;-60
2021/05/31 06:40:50;;;;;;;10.57;8.73;;;;;;;21.44;48.00;94340.97;5014366;28;96944;-60
2021/05/31 06:43:15;;;;;;;17.13;9.25;;;;;;;21.43;48.16;94325.69;5013293;28;99496;-60
2021/05/31 06:45:41;;;;;;;13.70;10.38;;;;;;;21.43;47.76;94334.69;5014037;28;99042;-60
2021/05/31 06:48:07;;;;;;;15.07;12.38;;;;;;;21.43;47.94;94331.16;5013057;28;96802;-60
2021/05/31 06:50:33;;;;;;;13.85;10.65;;;;;;;21.44;47.75;94335.47;5012248;28;96965;-59
2021/05/31 06:52:59;;;;;;;11.18;8.57;;;;;;;21.45;47.81;94331.53;5010851;28;99972;-60
2021/05/31 06:55:25;;;;;;;14.02;9.98;;;;;;;21.46;47.95;94342.09;5011122;28;99551;-60
2021/05/31 06:57:51;;;;;;;12.60;10.50;;;;;;;21.45;47.96;94332.31;5011133;28;97262;-60
2021/05/31 07:00:18;;;;;;;15.15;10.75;;;;;;;21.46;47.94;94344.84;5011227;28;97198;-60
2021/05/31 07:02:44;;;;;;;12.50;10.30;;;;;;;21.47;47.90;94342.91;5010957;28;99826;-60
2021/05/31 07:05:09;;;;;;;12.02;9.65;;;;;;;21.48;47.91;94336.22;5012692;28;97392;-60
2021/05/31 07:07:36;;;;;;;14.25;9.68;;;;;;;21.49;47.92;94337.75;5014768;28;96652;-59
2021/05/31 07:10:02;;;;;;;13.18;10.50;;;;;;;21.48;47.92;94339.72;5014924;28;96972;-60
2021/05/31 07:12:28;;;;;;;10.75;9.15;;;;;;;21.49;47.72;94332.25;5014352;28;99527;-59
2021/05/31 07:14:55;;;;;;;12.70;10.25;;;;;;;21.50;47.79;94341.28;5015163;28;96944;-59
2021/05/31 07:17:20;;;;;;;11.07;9.48;;;;;;;21.50;47.63;94338.53;5014580;28;96833;-59
2021/05/31 07:19:46;;;;;;;13.38;9.40;;;;;;;21.50;47.58;94339.28;5015134;28;96815;-60
2021/05/31 07:22:19;;;;;;;10.48;9.40;;;;;;;21.52;47.52;94336.16;5013864;28;100198;-59
2021/05/31 07:24:45;;;;;;;11.27;9.45;;;;;;;21.52;47.37;94330.66;5014127;28;98011;-59
2021/05/31 07:27:11;;;;;;;10.25;8.90;;;;;;;21.52;47.38;94331.41;5014789;28;96650;-59
2021/05/31 07:29:37;;;;;;;10.95;8.15;;;;;;;21.52;47.35;94331.41;5014940;28;96963;-59
2021/05/31 07:32:03;;;;;;;10.50;8.52;;;;;;;21.53;47.35;94335.72;5014210;28;99190;-59
2021/05/31 07:34:29;;;;;;;10.45;8.70;;;;;;;21.54;47.38;94340.03;5014109;28;98802;-59
2021/05/31 07:36:54;;;;;;;10.27;8.50;;;;;;;21.55;47.31;94346.31;5014836;28;96631;-59
2021/05/31 07:39:20;;;;;;;9.82;8.10;;;;;;;21.54;47.14;94340.03;5015073;28;96958;-59
2021/05/31 07:41:45;;;;;;;10.70;9.00;;;;;;;21.56;47.14;94342.38;5014480;28;99535;-60
2021/05/31 07:44:11;;;;;;;10.40;8.35;;;;;;;21.57;47.19;94339.22;5014457;28;99340;-60
2021/05/31 07:46:36;;;;;;;9.65;7.88;;;;;;;21.57;46.99;94332.94;5015712;28;97126;-59
2021/05/31 07:49:01;;;;;;;10.70;8.25;;;;;;;21.58;46.98;94329.78;5018124;28;96916;-60
2021/05/31 07:51:27;;;;;;;8.52;7.65;;;;;;;21.55;46.99;94318.84;5017350;28;99480;-60
2021/05/31 07:53:54;;;;;;;10.30;8.10;;;;;;;21.59;46.96;94323.09;5017532;28;99489;-60
2021/05/31 07:56:22;;;;;;;10.10;8.07;;;;;;;21.58;46.95;94318.78;5018103;28;96726;-60
2021/05/31 07:58:47;;;;;;;9.20;7.75;;;;;;;21.57;46.86;94311.72;5018388;28;96925;-60
2021/05/31 08:01:13;;;;;;;8.63;7.63;;;;;;;21.61;46.93;94317.19;5017182;28;99245;-59
2021/05/31 08:03:39;;;;;;;8.65;7.72;;;;;;;21.61;46.98;94312.44;5017884;28;99154;-59
2021/05/31 08:06:04;;;;;;;9.20;7.55;;;;;;;21.61;46.89;94317.94;5017945;28;97113;-59
2021/05/31 08:08:30;;;;;;;9.00;7.60;;;;;;;21.62;46.89;94314.03;5017856;28;96917;-59
2021/05/31 08:10:55;;;;;;;8.57;7.10;;;;;;;21.65;46.40;94311.66;5024776;28;99666;-58
2021/05/31 08:13:22;;;;;;;8.35;6.95;;;;;;;21.66;46.82;94313.22;5035657;28;98881;-59
2021/05/31 08:15:47;;;;;;;9.15;7.00;;;;;;;21.65;46.65;94311.66;5036902;28;97087;-59
2021/05/31 08:18:12;;;;;;;8.43;7.18;;;;;;;21.65;46.79;94306.16;5037903;28;97005;-59
2021/05/31 08:20:39;;;;;;;7.55;6.82;;;;;;;21.64;46.96;94310.09;5037416;28;99347;-59
2021/05/31 08:23:04;;;;;;;7.57;6.88;;;;;;;21.64;46.69;94310.09;5019437;28;101242;-59
2021/05/31 08:25:30;;;;;;;7.40;6.60;;;;;;;21.54;46.56;94287.81;5037377;28;96911;-59
2021/05/31 08:27:55;;;;;;;10.20;6.85;;;;;;;21.66;46.80;94307.72;5038253;28;97004;-60
2021/05/31 08:30:22;;;;;;;9.02;6.97;;;;;;;21.66;46.86;94302.22;5018762;28;99062;-59
2021/05/31 08:32:47;;;;;;;8.00;6.65;;;;;;;21.72;46.51;94295.06;5036211;28;98886;-59
2021/05/31 08:35:13;;;;;;;8.73;6.55;;;;;;;21.62;46.15;94294.81;5035975;28;96779;-60
2021/05/31 08:37:38;;;;;;;8.00;6.50;;;;;;;21.50;46.63;94295.34;5037334;28;96914;-61
2021/05/31 08:40:05;;;;;;;13.10;11.20;;;;;;;21.42;47.14;94289.16;5036882;28;99793;-59
2021/05/31 08:42:34;;;;;;;19.02;16.02;;;;;;;21.40;47.42;94285.28;5036579;28;99400;-61
2021/05/31 08:44:59;;;;;;;19.23;15.65;;;;;;;21.38;47.67;94282.19;5037139;28;97353;-61
2021/05/31 08:47:24;;;;;;;18.75;15.45;;;;;;;21.37;47.49;94292.38;5036447;28;97051;-59
2021/05/31 08:49:50;;;;;;;16.38;13.98;;;;;;;21.39;47.75;94283.75;5001781;28;99411;-59
2021/05/31 08:52:15;;;;;;;17.33;13.65;;;;;;;21.40;47.76;94285.28;5036630;28;99493;-62
2021/05/31 08:54:41;;;;;;;16.67;13.65;;;;;;;21.44;48.02;94286.03;5036817;28;96644;-62
2021/05/31 08:57:06;;;;;;;16.58;12.55;;;;;;;21.47;47.84;94285.97;5036391;28;96871;-60
2021/05/31 08:59:32;;;;;;;10.38;9.10;;;;;;;21.50;47.19;94275.34;5035588;28;99243;-61
2021/05/31 09:01:57;;;;;;;11.00;9.90;;;;;;;21.50;47.25;94278.84;5036174;28;99273;-61
2021/05/31 09:04:24;;;;;;;9.50;8.50;;;;;;;21.52;47.44;94283.94;5037109;28;96670;-60
2021/05/31 09:06:54;;;;;;;9.18;7.18;;;;;;;21.52;47.03;94281.97;5037030;28;97002;-62
2021/05/31 09:09:19;;;;;;;10.82;8.65;;;;;;;21.50;47.11;94278.09;5036240;27;99793;-61
2021/05/31 09:11:57;;;;;;;7.85;7.05;;;;;;;21.54;47.29;94278.81;5036145;28;99403;-61
2021/05/31 09:14:23;;;;;;;8.82;6.07;;;;;;;21.56;47.06;94276.44;5036489;28;96666;-61
2021/05/31 09:16:48;;;;;;;8.30;6.18;;;;;;;21.57;47.30;94273.25;5037193;28;96796;-62
2021/05/31 09:19:14;;;;;;;8.75;5.90;;;;;;;21.62;47.01;94272.06;5036249;28;99579;-67
2021/05/31 09:21:39;;;;;;;5.72;5.22;;;;;;;21.63;47.24;94270.88;5017982;28;99795;-63
2021/05/31 09:24:12;;;;;;;6.05;5.20;;;;;;;21.65;46.81;94284.19;5035643;28;96906;-63
2021/05/31 09:26:59;;;;;;;7.30;5.60;;;;;;;21.66;47.99;94285.72;5036414;28;96971;-65
2021/05/31 09:29:25;;;;;;;7.60;5.53;;;;;;;21.68;48.72;94277.84;5036065;28;99685;-60
2021/05/31 09:32:19;;;;;;;5.75;5.25;;;;;;;21.75;48.89;94283.25;5036304;28;99219;-60
2021/05/31 09:34:55;;;;;;;6.50;5.28;;;;;;;21.76;48.51;94290.28;5014779;28;96978;-60
2021/05/31 09:37:22;;;;;;;5.35;4.85;;;;;;;21.78;48.51;94287.91;5018486;28;96784;-61
2021/05/31 09:39:47;;;;;;;7.45;5.40;;;;;;;21.80;48.74;94280.03;5036466;28;99664;-61
2021/05/31 09:42:15;;;;;;;6.03;5.40;;;;;;;21.81;48.79;94275.28;5001833;28;97927;-61
2021/05/31 09:44:41;;;;;;;5.65;5.05;;;;;;;21.84;48.78;94279.97;5036491;28;96765;-60
2021/05/31 09:47:06;;;;;;;7.03;5.47;;;;;;;21.85;48.97;94282.31;5036620;28;96864;-62
2021/05/31 09:49:32;;;;;;;6.22;5.00;;;;;;;21.78;48.75;94263.16;5035316;28;99549;-60
2021/05/31 09:52:04;;;;;;;6.97;5.45;;;;;;;21.86;48.92;94278.38;5001196;28;97897;-61
2021/05/31 09:54:36;;;;;;;7.30;4.88;;;;;;;21.87;48.89;94274.41;5036442;28;96783;-62
2021/05/31 09:57:22;;;;;;;;;;;;;;;21.87;48.92;94279.91;5018488;28;96783;-62
2021/05/31 09:59:57;;;;;;;5.82;5.22;;;;;;;21.84;49.23;94267.00;5022915;28;99396;-60
2021/05/31 10:02:30;;;;;;;5.43;4.93;;;;;;;21.77;49.02;94258.88;5034217;28;100270;-61
2021/05/31 10:05:08;;;;;;;6.78;5.60;;;;;;;21.85;49.45;94257.56;5036260;28;96713;-60
2021/05/31 10:10:18;;;;;;;6.20;5.05;;;;;;;21.86;49.15;94256.38;5033626;27;97247;-60
2021/05/31 10:12:43;;;;;;;5.40;4.88;;;;;;;21.87;49.13;94257.94;5035538;28;99258;-60
2021/05/31 10:15:11;;;;;;;6.20;5.15;;;;;;;21.87;48.98;94255.19;5017210;28;96800;-61
2021/05/31 10:17:36;;;;;;;6.40;4.75;;;;;;;21.87;48.89;94257.13;5035806;28;96929;-61
2021/05/31 10:20:03;;;;;;;5.30;4.80;;;;;;;21.87;49.13;94249.69;5017512;28;99582;-60
2021/05/31 10:22:32;;;;;;;5.63;5.05;;;;;;;21.88;48.92;94248.47;5035389;28;99302;-62
2021/05/31 10:24:59;;;;;;;5.10;4.53;;;;;;;21.88;48.84;94253.97;5035155;28;97135;-60
2021/05/31 10:27:28;;;;;;;5.65;4.60;;;;;;;21.88;48.91;94248.47;5017934;28;96973;-61
2021/05/31 10:29:53;;;;;;;4.63;4.22;;;;;;;21.89;48.86;94250.03;5001097;28;98176;-61
2021/05/31 10:32:19;;;;;;;5.20;4.70;;;;;;;21.89;48.68;94241.78;5017266;28;99227;-62
2021/05/31 10:34:46;;;;;;;4.82;4.40;;;;;;;21.88;48.87;94237.50;5033422;28;97097;-60
2021/05/31 10:37:25;;;;;;;5.07;4.60;;;;;;;21.90;48.75;94240.59;5033508;28;97045;-60
2021/05/31 10:40:03;;;;;;;5.82;4.60;;;;;;;21.90;48.72;94235.09;5034455;28;99739;-61
2021/05/31 10:42:51;;;;;;;7.18;4.55;;;;;;;21.91;48.49;94225.66;5030673;28;99327;-61
2021/05/31 10:45:24;;;;;;;4.82;4.43;;;;;;;21.92;48.63;94221.72;5031289;28;97112;-61
2021/05/31 10:48:12;;;;;;;5.18;4.68;;;;;;;21.94;48.49;94223.28;5014344;28;97362;-61
2021/05/31 10:50:43;;;;;;;4.88;4.32;;;;;;;21.93;48.34;94225.22;5031195;28;99886;-60
2021/05/31 10:53:31;;;;;;;4.70;4.20;;;;;;;21.94;48.55;94229.53;5031299;28;99242;-62
2021/05/31 10:56:01;;;;;;;4.40;4.00;;;;;;;21.94;48.27;94220.53;5032941;28;97035;-61
2021/05/31 10:58:31;;;;;;;4.38;3.97;;;;;;;21.95;48.19;94224.81;5036118;28;96929;-62
2021/05/31 11:00:59;;;;;;;4.88;4.28;;;;;;;21.95;48.00;94217.34;5035039;28;99333;-62
2021/05/31 11:03:25;;;;;;;6.40;4.70;;;;;;;21.97;48.03;94211.44;5034911;28;99461;-61
2021/05/31 11:05:50;;;;;;;4.47;4.07;;;;;;;21.95;48.02;94208.31;5000084;28;96759;-60
2021/05/31 11:08:26;;;;;;;4.60;4.20;;;;;;;21.98;48.19;94202.00;5035229;28;96881;-61
2021/05/31 11:10:56;;;;;;;4.38;4.03;;;;;;;21.96;47.82;94198.88;5034446;27;99897;-61
2021/05/31 11:13:22;;;;;;;5.13;4.15;;;;;;;21.96;47.90;94190.63;5034862;28;99159;-60
2021/05/31 11:15:59;;;;;;;4.40;4.00;;;;;;;21.96;47.98;94193.38;5034561;28;96743;-61
2021/05/31 11:18:32;;;;;;;5.47;4.30;;;;;;;21.94;47.99;94190.28;5018112;28;97226;-61
2021/05/31 11:20:58;;;;;;;4.45;4.05;;;;;;;21.95;48.14;94197.31;5034444;28;99698;-62
2021/05/31 11:23:24;;;;;;;4.80;4.38;;;;;;;21.96;47.73;94193.38;5034680;28;99719;-61
2021/05/31 11:25:49;;;;;;;5.63;3.85;;;;;;;21.96;47.94;94187.88;5034823;28;96919;-60
2021/05/31 11:28:15;;;;;;;4.43;4.03;;;;;;;21.96;48.05;94194.16;5034924;28;96974;-61
2021/05/31 11:30:40;;;;;;;4.75;3.67;;;;;;;21.96;48.18;94193.38;5033987;28;99653;-61
2021/05/31 11:33:06;;;;;;;4.35;3.88;;;;;;;21.95;48.25;94191.81;5034263;28;99234;-62
2021/05/31 11:35:31;;;;;;;4.03;3.63;;;;;;;22.00;48.35;94194.09;5034937;28;97018;-61
2021/05/31 11:37:57;;;;;;;3.88;3.42;;;;;;;22.02;49.15;94183.47;5033984;28;97027;-66
2021/05/31 11:40:29;;;;;;;4.47;4.07;;;;;;;22.05;48.64;94188.13;5034069;28;99472;-66
2021/05/31 11:42:55;;;;;;;;;;;;;;;22.04;48.67;94186.56;5034311;28;99641;-66
2021/05/31 11:45:22;;;;;;;5.20;3.45;;;;;;;22.00;48.97;94188.59;5034642;28;96953;-62
2021/05/31 11:48:09;;;;;;;3.75;3.33;;;;;;;22.03;49.95;94190.50;5035234;28;96903;-62
2021/05/31 11:50:35;;;;;;;3.10;2.90;;;;;;;22.01;49.87;94185.41;5033993;28;99439;-64